Aviation Digital Data Service (ADDS)

Output produced by METARs form (2040 UTC 30 July 2016)
found at http://www.aviationweather.gov/adds/metars/
 
KILG 301951Z 15012G19KT 10SM SCT095 28/21 A2995 RMK AO2 SLP140 T02780211
KILG 302021Z 3020/3118 15010G18KT P6SM BKN090 
     TEMPO 3020/3022 2SM +TSRA BR OVC025CB 
     FM302200 15006KT 5SM SHRA BR OVC035 
     FM310200 14006KT 5SM SHRA BR OVC025 
     FM310600 11006KT 3SM SHRA BR OVC010 
     FM311500 21006KT P6SM BKN035